createdAt,value
2022-12-15T00:00:35.530Z,31.47
2022-12-15T00:03:26.133Z,28.83
2022-12-15T00:06:12.387Z,29.43
2022-12-15T00:08:59.188Z,30.83
2022-12-15T00:11:45.453Z,37.43
2022-12-15T00:14:31.451Z,34.73
2022-12-15T00:17:18.892Z,37.83
2022-12-15T00:20:05.295Z,34.33
2022-12-15T00:22:51.844Z,35.57
2022-12-15T00:25:38.770Z,33.87
2022-12-15T00:28:25.099Z,32.80
2022-12-15T00:31:11.819Z,36.63
2022-12-15T00:33:59.000Z,35.97
2022-12-15T00:36:45.233Z,34.60
2022-12-15T00:39:19.082Z,31.37
2022-12-15T00:41:47.539Z,33.83
2022-12-15T00:44:20.573Z,39.30
2022-12-15T00:46:54.804Z,42.97
2022-12-15T00:49:43.723Z,39.07
2022-12-15T00:52:30.269Z,31.80
2022-12-15T00:55:16.763Z,35.93
2022-12-15T00:58:02.809Z,32.10
2022-12-15T01:00:50.036Z,31.53
2022-12-15T01:03:38.065Z,41.63
2022-12-15T01:06:28.386Z,36.90
2022-12-15T01:09:14.267Z,33.13
2022-12-15T01:12:00.433Z,36.70
2022-12-15T01:14:46.559Z,37.63
2022-12-15T01:17:33.271Z,35.20
2022-12-15T01:20:20.128Z,38.97
2022-12-15T01:22:53.145Z,35.83
2022-12-15T01:25:23.711Z,39.20
2022-12-15T01:27:53.120Z,44.93
2022-12-15T01:30:23.862Z,45.17
2022-12-15T01:32:52.459Z,50.77
2022-12-15T01:35:21.830Z,38.00
2022-12-15T01:37:51.758Z,38.63
2022-12-15T01:40:39.500Z,49.93
2022-12-15T01:43:13.895Z,38.90
2022-12-15T01:46:03.258Z,46.30
2022-12-15T01:48:38.058Z,39.13
2022-12-15T01:51:25.163Z,39.63
2022-12-15T01:54:02.581Z,40.03
2022-12-15T01:56:37.588Z,38.80
2022-12-15T01:59:10.768Z,38.03
2022-12-15T02:01:39.852Z,38.70
2022-12-15T02:04:12.034Z,38.50
2022-12-15T02:06:40.564Z,38.70
2022-12-15T02:09:11.724Z,40.97
2022-12-15T02:11:57.775Z,39.57
2022-12-15T02:14:40.604Z,38.53
2022-12-15T02:17:23.227Z,38.07
2022-12-15T02:20:29.040Z,34.17
2022-12-15T02:23:25.436Z,37.33
2022-12-15T02:26:25.429Z,32.73
2022-12-15T02:29:04.452Z,38.17
2022-12-15T02:31:52.348Z,41.70
2022-12-15T02:34:28.226Z,45.90
2022-12-15T02:37:01.025Z,39.40
2022-12-15T02:39:30.938Z,34.67
2022-12-15T02:41:59.709Z,35.90
2022-12-15T02:44:34.958Z,33.20
2022-12-15T02:47:20.134Z,37.03
2022-12-15T02:50:09.873Z,35.57
2022-12-15T02:52:53.005Z,37.93
2022-12-15T02:55:29.624Z,36.63
2022-12-15T02:58:04.044Z,36.87
2022-12-15T03:00:38.901Z,36.53
2022-12-15T03:03:09.815Z,33.80
2022-12-15T03:05:39.014Z,38.33
2022-12-15T03:08:09.285Z,39.20
2022-12-15T03:10:37.798Z,41.77
2022-12-15T03:13:06.276Z,41.43
2022-12-15T03:15:35.808Z,37.70
2022-12-15T03:18:04.775Z,33.83
2022-12-15T03:20:34.795Z,38.77
2022-12-15T03:23:03.264Z,39.43
2022-12-15T03:25:33.508Z,41.77
2022-12-15T03:28:01.954Z,41.73
2022-12-15T03:30:30.547Z,47.60
2022-12-15T03:32:59.300Z,39.53
2022-12-15T03:35:27.772Z,38.33
2022-12-15T03:37:57.933Z,38.47
2022-12-15T03:40:26.564Z,38.80
2022-12-15T03:42:54.960Z,33.40
2022-12-15T03:45:25.582Z,40.63
2022-12-15T03:47:55.033Z,38.10
2022-12-15T03:50:26.369Z,44.53
2022-12-15T03:52:58.093Z,43.17
2022-12-15T03:55:28.860Z,41.67
2022-12-15T03:57:57.891Z,31.87
2022-12-15T04:00:27.064Z,36.43
2022-12-15T04:02:56.142Z,38.67
2022-12-15T04:05:27.195Z,33.90
2022-12-15T04:07:58.428Z,38.63
2022-12-15T04:10:33.891Z,34.30
2022-12-15T04:13:05.290Z,36.40
2022-12-15T04:15:34.161Z,34.20
2022-12-15T04:18:03.483Z,38.13
2022-12-15T04:20:33.170Z,42.43
2022-12-15T04:23:03.439Z,43.77
2022-12-15T04:25:49.628Z,34.40
2022-12-15T04:28:35.872Z,33.60
2022-12-15T04:31:26.762Z,38.97
2022-12-15T04:34:17.022Z,42.33
2022-12-15T04:37:05.626Z,35.43
2022-12-15T04:39:53.485Z,43.10
2022-12-15T04:42:39.842Z,39.43
2022-12-15T04:45:27.704Z,42.13
2022-12-15T04:48:13.739Z,36.27
2022-12-15T04:51:00.079Z,40.70
2022-12-15T04:53:45.985Z,40.80
2022-12-15T04:56:34.904Z,34.47
2022-12-15T04:59:21.683Z,36.60
2022-12-15T05:02:08.456Z,43.93
2022-12-15T05:04:55.859Z,39.37
2022-12-15T05:07:45.037Z,36.57
2022-12-15T05:10:30.991Z,36.33
2022-12-15T05:13:24.655Z,39.30
2022-12-15T05:16:10.918Z,37.90
2022-12-15T05:18:56.958Z,42.60
2022-12-15T05:21:43.277Z,40.50
2022-12-15T05:24:29.544Z,43.17
2022-12-15T05:27:16.030Z,42.43
2022-12-15T05:30:03.562Z,45.83
2022-12-15T05:32:33.375Z,37.97
2022-12-15T05:35:02.564Z,46.80
2022-12-15T05:37:32.078Z,46.37
2022-12-15T05:40:00.690Z,40.33
2022-12-15T05:42:29.239Z,47.10
2022-12-15T05:44:59.161Z,42.60
2022-12-15T05:47:28.124Z,40.40
2022-12-15T05:49:56.535Z,37.23
2022-12-15T05:52:25.375Z,42.50
2022-12-15T05:54:54.102Z,40.60
2022-12-15T05:57:22.887Z,49.87
2022-12-15T05:59:51.236Z,45.13
2022-12-15T06:02:21.407Z,44.37
2022-12-15T06:04:50.186Z,49.23
2022-12-15T06:07:19.509Z,48.37
2022-12-15T06:09:48.277Z,41.30
2022-12-15T06:12:17.120Z,48.67
2022-12-15T06:14:45.669Z,52.27
2022-12-15T06:17:14.216Z,48.97
2022-12-15T06:19:44.184Z,45.33
2022-12-15T06:22:13.080Z,54.03
2022-12-15T06:24:41.796Z,51.70
2022-12-15T06:27:10.485Z,47.23
2022-12-15T06:29:39.024Z,49.97
2022-12-15T06:32:07.573Z,51.33
2022-12-15T06:34:37.147Z,42.40
2022-12-15T06:37:07.366Z,49.43
2022-12-15T06:39:35.948Z,45.60
2022-12-15T06:42:05.449Z,48.93
2022-12-15T06:44:34.257Z,45.33
2022-12-15T06:47:03.011Z,46.13
2022-12-15T06:49:32.104Z,52.33
2022-12-15T06:52:00.468Z,48.97
2022-12-15T06:54:30.380Z,48.93
2022-12-15T06:56:58.894Z,62.93
2022-12-15T06:59:27.667Z,52.83
2022-12-15T07:01:56.504Z,48.97
2022-12-15T07:04:25.136Z,53.63
2022-12-15T07:06:53.754Z,42.00
2022-12-15T07:09:22.314Z,46.57
2022-12-15T07:11:53.183Z,42.73
2022-12-15T07:14:22.615Z,53.57
2022-12-15T07:16:51.320Z,53.23
2022-12-15T07:19:20.177Z,47.00
2022-12-15T07:21:48.742Z,48.30
2022-12-15T07:24:17.618Z,47.70
2022-12-15T07:26:46.646Z,51.57
2022-12-15T07:29:23.252Z,53.70
2022-12-15T07:31:52.427Z,54.63
2022-12-15T07:34:21.801Z,41.37
2022-12-15T07:36:52.345Z,50.67
2022-12-15T07:39:21.909Z,49.53
2022-12-15T07:41:50.626Z,51.63
2022-12-15T07:44:20.985Z,42.50
2022-12-15T07:46:50.230Z,51.90
2022-12-15T07:49:19.417Z,43.70
2022-12-15T07:51:48.365Z,49.30
2022-12-15T07:54:17.289Z,50.53
2022-12-15T07:56:50.241Z,51.87
2022-12-15T07:59:21.138Z,53.80
2022-12-15T08:01:52.770Z,50.67
2022-12-15T08:04:21.731Z,53.33
2022-12-15T08:06:51.609Z,47.90
2022-12-15T08:09:20.461Z,48.83
2022-12-15T08:11:49.208Z,52.47
2022-12-15T08:14:18.838Z,47.17
2022-12-15T08:16:48.998Z,48.93
2022-12-15T08:19:19.205Z,57.77
2022-12-15T08:21:48.724Z,51.80
2022-12-15T08:24:19.546Z,58.33
2022-12-15T08:26:50.276Z,49.33
2022-12-15T08:32:09.935Z,58.60
2022-12-15T08:34:39.619Z,49.20
2022-12-15T08:37:08.220Z,57.50
2022-12-15T08:39:36.831Z,49.23
2022-12-15T08:42:06.090Z,60.20
2022-12-15T08:44:34.641Z,57.40
2022-12-15T08:47:04.564Z,61.60
2022-12-15T08:49:34.598Z,57.20
2022-12-15T08:52:03.126Z,57.70
2022-12-15T08:54:32.592Z,72.93
2022-12-15T08:57:01.349Z,53.80
2022-12-15T08:59:29.970Z,58.57
2022-12-15T09:01:58.952Z,57.00
2022-12-15T09:04:27.931Z,65.80
2022-12-15T09:06:58.062Z,54.77
2022-12-15T09:09:26.822Z,62.47
2022-12-15T09:11:55.572Z,55.80
2022-12-15T09:14:29.089Z,55.00
2022-12-15T09:16:58.670Z,61.87
2022-12-15T09:19:28.166Z,69.27
2022-12-15T09:21:58.229Z,58.30
2022-12-15T09:24:34.795Z,58.47
2022-12-15T09:27:04.652Z,62.77
2022-12-15T09:29:34.116Z,63.00
2022-12-15T09:32:05.540Z,63.40
2022-12-15T09:34:37.999Z,66.37
2022-12-15T09:37:10.699Z,56.83
2022-12-15T09:39:40.144Z,60.03
2022-12-15T09:42:24.324Z,62.60
2022-12-15T09:45:02.074Z,62.47
2022-12-15T09:47:43.577Z,60.27
2022-12-15T09:50:13.860Z,63.53
2022-12-15T09:52:49.833Z,66.17
2022-12-15T09:55:24.184Z,60.77
2022-12-15T09:57:55.403Z,68.47
2022-12-15T10:00:26.335Z,57.50
2022-12-15T10:03:31.504Z,59.10
2022-12-15T10:06:16.591Z,62.33
2022-12-15T10:08:51.574Z,59.03
2022-12-15T10:11:34.903Z,58.50
2022-12-15T10:14:13.394Z,56.50
2022-12-15T10:16:52.892Z,68.93
2022-12-15T10:19:30.065Z,57.37
2022-12-15T10:21:59.841Z,61.30
2022-12-15T10:27:40.916Z,55.17
2022-12-15T10:30:13.019Z,56.40
2022-12-15T10:32:51.191Z,65.63
2022-12-15T10:35:23.761Z,52.10
2022-12-15T10:37:52.822Z,54.50
2022-12-15T10:40:50.209Z,57.33
2022-12-15T10:43:29.084Z,58.27
2022-12-15T10:46:12.232Z,62.03
2022-12-15T10:48:41.199Z,53.53
2022-12-15T10:51:22.421Z,47.60
2022-12-15T10:53:53.873Z,52.60
2022-12-15T10:56:33.321Z,53.07
2022-12-15T10:59:04.849Z,54.07
2022-12-15T11:01:35.970Z,47.83
2022-12-15T11:04:05.184Z,48.20
2022-12-15T11:06:36.925Z,57.13
2022-12-15T11:09:11.582Z,59.37
2022-12-15T11:12:11.915Z,50.07
2022-12-15T11:14:47.766Z,53.20
2022-12-15T11:17:18.411Z,58.40
2022-12-15T11:19:58.248Z,57.03
2022-12-15T11:22:39.105Z,52.07
2022-12-15T11:25:21.854Z,50.10
2022-12-15T11:27:56.335Z,53.87
2022-12-15T11:30:29.073Z,48.53
2022-12-15T11:33:01.593Z,48.93
2022-12-15T11:35:43.165Z,47.13
2022-12-15T11:38:22.327Z,51.50
2022-12-15T11:40:51.908Z,43.63
2022-12-15T11:43:35.377Z,47.27
2022-12-15T11:46:21.532Z,47.13
2022-12-15T11:49:37.598Z,52.97
2022-12-15T11:52:18.630Z,53.17
2022-12-15T11:54:55.624Z,48.43
2022-12-15T11:57:47.534Z,54.60
2022-12-15T12:00:22.062Z,41.80
2022-12-15T12:03:05.781Z,48.20
2022-12-15T12:06:05.023Z,54.87
2022-12-15T12:08:47.228Z,49.10
2022-12-15T12:11:24.112Z,49.00
2022-12-15T12:14:11.721Z,51.37
2022-12-15T12:16:50.550Z,45.33
2022-12-15T12:19:25.011Z,41.87
2022-12-15T12:22:00.714Z,42.73
2022-12-15T12:24:34.361Z,48.00
2022-12-15T12:27:06.674Z,48.93
2022-12-15T12:29:39.719Z,63.33
2022-12-15T12:32:16.870Z,60.10
2022-12-15T12:35:31.249Z,46.77
2022-12-15T12:38:01.074Z,43.70
2022-12-15T12:40:44.539Z,49.03
2022-12-15T12:43:24.374Z,46.87
2022-12-15T12:45:57.247Z,50.57
2022-12-15T12:48:33.294Z,50.10
2022-12-15T12:51:17.992Z,42.70
2022-12-15T12:53:46.830Z,41.10
2022-12-15T12:56:40.538Z,48.70
2022-12-15T12:59:38.736Z,41.83
2022-12-15T13:02:58.144Z,41.67
2022-12-15T13:05:31.771Z,42.00
2022-12-15T13:08:52.071Z,41.67
2022-12-15T13:11:57.216Z,41.13
2022-12-15T13:14:48.228Z,34.43
2022-12-15T13:17:40.382Z,37.90
2022-12-15T13:20:29.565Z,39.60
2022-12-15T13:23:36.479Z,33.63
2022-12-15T13:26:15.959Z,38.50
2022-12-15T13:28:52.724Z,48.23
2022-12-15T13:31:45.261Z,32.77
2022-12-15T13:34:20.931Z,36.80
2022-12-15T13:36:57.464Z,41.23
2022-12-15T13:39:57.892Z,54.33
2022-12-15T13:42:51.379Z,34.23
2022-12-15T13:45:44.418Z,43.27
2022-12-15T13:48:35.866Z,32.37
2022-12-15T13:51:20.811Z,45.07
2022-12-15T13:53:56.457Z,31.17
2022-12-15T13:56:50.831Z,33.77
2022-12-15T13:59:30.551Z,31.30
2022-12-15T14:01:59.438Z,35.60
2022-12-15T14:04:28.512Z,28.47
2022-12-15T14:06:59.489Z,34.30
2022-12-15T14:09:34.112Z,40.70
2022-12-15T14:12:04.568Z,34.00
2022-12-15T14:14:37.764Z,31.03
2022-12-15T14:17:10.488Z,29.77
2022-12-15T14:19:41.161Z,26.97
2022-12-15T14:22:29.045Z,31.73
2022-12-15T14:25:05.599Z,37.50
2022-12-15T14:27:37.836Z,42.90
2022-12-15T14:30:22.540Z,29.70
2022-12-15T14:32:58.138Z,37.07
2022-12-15T14:35:32.105Z,42.63
2022-12-15T14:38:04.014Z,33.63
2022-12-15T14:40:37.876Z,27.93
2022-12-15T14:43:10.640Z,38.43
2022-12-15T14:45:42.319Z,32.53
2022-12-15T14:48:40.089Z,38.00
2022-12-15T14:51:01.958Z,34.97
2022-12-15T14:53:35.164Z,34.27
2022-12-15T14:56:29.994Z,29.17
2022-12-15T14:59:04.909Z,29.93
2022-12-15T15:01:40.265Z,34.23
2022-12-15T15:04:25.277Z,28.77
2022-12-15T15:06:56.812Z,32.33
2022-12-15T15:09:27.799Z,30.27
2022-12-15T15:12:02.481Z,30.53
2022-12-15T15:14:35.630Z,34.77
2022-12-15T15:17:09.693Z,29.17
2022-12-15T15:19:41.809Z,33.90
2022-12-15T15:22:36.708Z,33.83
2022-12-15T15:25:33.640Z,30.80
2022-12-15T15:28:15.696Z,30.73
2022-12-15T15:30:48.383Z,35.00
2022-12-15T15:33:19.470Z,37.87
2022-12-15T15:35:53.249Z,32.37
2022-12-15T15:38:24.529Z,30.13
2022-12-15T15:40:55.255Z,29.53
2022-12-15T15:43:27.485Z,32.30
2022-12-15T15:46:01.864Z,33.63
2022-12-15T15:48:35.599Z,36.67
2022-12-15T15:51:06.763Z,36.13
2022-12-15T15:53:39.227Z,38.93
2022-12-15T15:56:12.086Z,34.27
2022-12-15T15:58:45.597Z,35.60
2022-12-15T16:01:14.386Z,35.53
2022-12-15T16:03:43.512Z,33.67
2022-12-15T16:06:18.327Z,34.73
2022-12-15T16:08:50.296Z,34.87
2022-12-15T16:11:19.160Z,35.50
2022-12-15T16:13:49.297Z,45.43
2022-12-15T16:16:21.045Z,42.10
2022-12-15T16:18:49.664Z,40.67
2022-12-15T16:21:27.292Z,38.40
2022-12-15T16:23:56.979Z,37.33
2022-12-15T16:26:29.419Z,42.30
2022-12-15T16:28:59.365Z,44.97
2022-12-15T16:31:37.183Z,47.93
2022-12-15T16:34:09.534Z,43.43
2022-12-15T16:36:39.298Z,53.10
2022-12-15T16:39:29.117Z,56.87
2022-12-15T16:41:58.196Z,62.37
2022-12-15T16:44:30.341Z,71.37
2022-12-15T16:47:00.086Z,78.03
2022-12-15T16:49:33.827Z,81.93
2022-12-15T16:52:06.938Z,87.23
2022-12-15T16:54:35.602Z,92.43
2022-12-15T16:57:05.647Z,84.20
2022-12-15T16:59:36.330Z,93.40
2022-12-15T17:02:26.085Z,87.33
2022-12-15T17:04:56.083Z,100.73
2022-12-15T17:07:27.751Z,92.70
2022-12-15T17:09:57.004Z,92.33
2022-12-15T17:12:26.153Z,87.77
2022-12-15T17:14:57.644Z,93.77
2022-12-15T17:17:27.880Z,88.93
2022-12-15T17:22:47.046Z,90.87
2022-12-15T17:25:27.361Z,98.33
2022-12-15T17:28:08.493Z,101.90
2022-12-15T17:30:38.808Z,108.67
2022-12-15T17:33:18.622Z,104.10
2022-12-15T17:35:48.509Z,97.57
2022-12-15T17:38:18.721Z,91.83
2022-12-15T17:40:51.407Z,100.17
2022-12-15T17:43:22.909Z,103.57
2022-12-15T17:45:55.859Z,95.03
2022-12-15T17:48:24.955Z,103.37
2022-12-15T17:50:55.087Z,110.67
2022-12-15T17:53:25.503Z,101.27
2022-12-15T17:55:55.107Z,117.27
2022-12-15T17:58:25.739Z,100.67
2022-12-15T18:00:57.504Z,101.37
2022-12-15T18:03:26.103Z,98.20
2022-12-15T18:05:55.094Z,98.67
2022-12-15T18:08:25.935Z,94.70
2022-12-15T18:10:57.129Z,96.63
2022-12-15T18:13:30.335Z,100.80
2022-12-15T18:16:03.878Z,106.73
2022-12-15T18:18:32.630Z,107.00
2022-12-15T18:21:07.098Z,108.33
2022-12-15T18:23:35.990Z,108.50
2022-12-15T18:26:04.644Z,102.20
2022-12-15T18:28:35.052Z,124.27
2022-12-15T18:31:16.705Z,104.57
2022-12-15T18:33:46.303Z,106.50
2022-12-15T18:36:16.351Z,107.17
2022-12-15T18:38:45.179Z,97.33
2022-12-15T18:41:16.298Z,104.93
2022-12-15T18:43:46.661Z,103.77
2022-12-15T18:46:20.267Z,109.17
2022-12-15T18:48:48.837Z,102.37
2022-12-15T18:51:19.525Z,142.67
2022-12-15T18:53:49.185Z,127.80
2022-12-15T18:56:21.760Z,127.27
2022-12-15T18:58:50.374Z,121.30
2022-12-15T19:01:20.477Z,114.80
2022-12-15T19:03:49.065Z,111.27
2022-12-15T19:06:35.040Z,109.70
2022-12-15T19:09:04.118Z,106.70
2022-12-15T19:11:33.062Z,98.30
2022-12-15T19:14:03.076Z,111.43
2022-12-15T19:16:53.246Z,102.40
2022-12-15T19:19:39.315Z,94.93
2022-12-15T19:22:30.063Z,110.03
2022-12-15T19:24:59.190Z,114.33
2022-12-15T19:27:28.929Z,108.50
2022-12-15T19:29:57.409Z,92.43
2022-12-15T19:32:27.552Z,104.17
2022-12-15T19:34:56.126Z,89.57
2022-12-15T19:37:28.579Z,94.27
2022-12-15T19:39:58.806Z,91.07
2022-12-15T19:42:31.748Z,88.53
2022-12-15T19:45:01.573Z,82.37
2022-12-15T19:47:31.805Z,96.43
2022-12-15T19:50:00.241Z,98.40
2022-12-15T19:52:29.383Z,104.50
2022-12-15T19:54:58.713Z,94.50
2022-12-15T19:57:27.534Z,83.97
2022-12-15T19:59:56.124Z,102.50
2022-12-15T20:02:27.758Z,89.27
2022-12-15T20:04:58.103Z,82.50
2022-12-15T20:07:30.968Z,88.17
2022-12-15T20:10:00.022Z,93.27
2022-12-15T20:12:28.764Z,89.80
2022-12-15T20:14:57.312Z,92.60
2022-12-15T20:17:26.520Z,86.40
2022-12-15T20:19:55.404Z,88.60
2022-12-15T20:22:25.854Z,99.93
2022-12-15T20:24:54.656Z,94.40
2022-12-15T20:27:23.698Z,106.80
2022-12-15T20:29:52.633Z,94.47
2022-12-15T20:32:22.628Z,93.20
2022-12-15T20:34:51.391Z,93.10
2022-12-15T20:37:24.474Z,99.20
2022-12-15T20:39:57.594Z,85.03
2022-12-15T20:42:26.647Z,86.63
2022-12-15T20:44:55.380Z,104.40
2022-12-15T20:47:26.679Z,105.30
2022-12-15T20:49:56.708Z,104.13
2022-12-15T20:52:28.052Z,98.70
2022-12-15T20:54:59.647Z,91.57
2022-12-15T20:57:28.481Z,97.17
2022-12-15T20:59:57.558Z,101.07
2022-12-15T21:02:28.904Z,105.80
2022-12-15T21:04:57.877Z,109.67
2022-12-15T21:07:26.873Z,102.83
2022-12-15T21:09:55.662Z,101.33
2022-12-15T21:12:27.950Z,112.50
2022-12-15T21:14:56.989Z,114.73
2022-12-15T21:17:27.867Z,100.87
2022-12-15T21:19:56.850Z,108.33
2022-12-15T21:22:28.758Z,104.27
2022-12-15T21:25:00.490Z,95.23
2022-12-15T21:27:30.634Z,102.13
2022-12-15T21:29:59.384Z,110.37
2022-12-15T21:32:28.055Z,111.50
2022-12-15T21:34:56.865Z,105.57
2022-12-15T21:37:30.098Z,101.13
2022-12-15T21:40:00.970Z,97.03
2022-12-15T21:42:39.700Z,95.40
2022-12-15T21:45:15.986Z,101.60
2022-12-15T21:48:02.722Z,100.60
2022-12-15T21:50:33.766Z,106.60
2022-12-15T21:53:04.095Z,92.33
2022-12-15T21:55:33.389Z,100.23
2022-12-15T21:58:03.711Z,99.80
2022-12-15T22:00:32.410Z,106.63
2022-12-15T22:03:01.575Z,110.67
2022-12-15T22:05:31.129Z,105.03
2022-12-15T22:08:10.468Z,97.10
2022-12-15T22:10:39.347Z,125.83
2022-12-15T22:13:16.518Z,113.77
2022-12-15T22:15:45.253Z,109.17
2022-12-15T22:18:19.704Z,92.77
2022-12-15T22:20:52.765Z,107.93
2022-12-15T22:23:24.433Z,107.10
2022-12-15T22:25:57.061Z,107.80
2022-12-15T22:28:29.820Z,106.83
2022-12-15T22:30:59.177Z,110.63
2022-12-15T22:33:31.818Z,114.53
2022-12-15T22:36:00.995Z,111.33
2022-12-15T22:38:30.167Z,103.37
2022-12-15T22:41:00.509Z,92.63
2022-12-15T22:43:36.633Z,88.97
2022-12-15T22:46:07.832Z,113.53
2022-12-15T22:48:43.590Z,106.00
2022-12-15T22:51:14.266Z,105.77
2022-12-15T22:53:43.791Z,104.50
2022-12-15T22:56:22.929Z,99.60
2022-12-15T22:58:57.722Z,108.97
2022-12-15T23:01:27.213Z,100.20
2022-12-15T23:03:56.350Z,93.13
2022-12-15T23:06:25.495Z,102.10
2022-12-15T23:08:56.259Z,101.07
2022-12-15T23:11:41.602Z,96.00
2022-12-15T23:14:13.260Z,91.10
2022-12-15T23:16:42.189Z,106.80
2022-12-15T23:19:23.902Z,101.73
2022-12-15T23:21:53.238Z,105.53
2022-12-15T23:24:22.535Z,97.20
2022-12-15T23:26:51.305Z,87.30
2022-12-15T23:29:21.892Z,96.97
2022-12-15T23:31:50.642Z,91.23
2022-12-15T23:34:19.477Z,91.50
2022-12-15T23:36:48.145Z,99.37
2022-12-15T23:39:16.957Z,95.07
2022-12-15T23:41:45.543Z,100.97
2022-12-15T23:44:14.353Z,80.80
2022-12-15T23:46:46.968Z,91.07
2022-12-15T23:49:17.395Z,93.33
2022-12-15T23:51:46.057Z,80.60
2022-12-15T23:54:15.068Z,104.17
2022-12-15T23:56:44.246Z,94.40
2022-12-15T23:59:13.933Z,94.17
